sensor_id;sensor_type;location;lat;lon;timestamp;P1;durP1;ratioP1;P2;durP2;ratioP2
9888;SDS011;4983;42.112;24.738;2024-03-07T00:02:07;26.23;;;12.75;;
9888;SDS011;4983;42.112;24.738;2024-03-07T00:04:33;22.10;;;11.05;;
9888;SDS011;4983;42.112;24.738;2024-03-07T00:07:01;28.50;;;13.32;;
9888;SDS011;4983;42.112;24.738;2024-03-07T00:09:29;25.50;;;12.98;;
9888;SDS011;4983;42.112;24.738;2024-03-07T00:11:56;25.27;;;12.73;;
9888;SDS011;4983;42.112;24.738;2024-03-07T00:14:21;23.85;;;13.07;;
9888;SDS011;4983;42.112;24.738;2024-03-07T00:16:51;29.70;;;12.82;;
9888;SDS011;4983;42.112;24.738;2024-03-07T00:19:24;27.23;;;13.18;;
9888;SDS011;4983;42.112;24.738;2024-03-07T00:21:58;25.45;;;13.38;;
9888;SDS011;4983;42.112;24.738;2024-03-07T00:24:24;28.88;;;13.93;;
9888;SDS011;4983;42.112;24.738;2024-03-07T00:26:49;26.88;;;13.32;;
9888;SDS011;4983;42.112;24.738;2024-03-07T00:29:16;23.45;;;12.52;;
9888;SDS011;4983;42.112;24.738;2024-03-07T00:31:45;26.75;;;14.10;;
9888;SDS011;4983;42.112;24.738;2024-03-07T00:34:12;27.58;;;13.43;;
9888;SDS011;4983;42.112;24.738;2024-03-07T00:36:39;27.05;;;13.38;;
9888;SDS011;4983;42.112;24.738;2024-03-07T00:39:05;54.53;;;18.08;;
9888;SDS011;4983;42.112;24.738;2024-03-07T00:41:33;25.48;;;12.95;;
9888;SDS011;4983;42.112;24.738;2024-03-07T00:43:59;28.85;;;13.35;;
9888;SDS011;4983;42.112;24.738;2024-03-07T00:46:24;23.45;;;12.73;;
9888;SDS011;4983;42.112;24.738;2024-03-07T00:48:50;27.63;;;13.07;;
9888;SDS011;4983;42.112;24.738;2024-03-07T00:51:15;31.38;;;13.68;;
9888;SDS011;4983;42.112;24.738;2024-03-07T00:53:40;25.20;;;12.10;;
9888;SDS011;4983;42.112;24.738;2024-03-07T00:56:06;27.48;;;12.40;;
9888;SDS011;4983;42.112;24.738;2024-03-07T00:58:31;26.20;;;13.35;;
9888;SDS011;4983;42.112;24.738;2024-03-07T01:00:57;24.98;;;13.40;;
9888;SDS011;4983;42.112;24.738;2024-03-07T01:03:22;25.38;;;12.10;;
9888;SDS011;4983;42.112;24.738;2024-03-07T01:05:49;21.35;;;13.00;;
9888;SDS011;4983;42.112;24.738;2024-03-07T01:08:15;28.95;;;11.55;;
9888;SDS011;4983;42.112;24.738;2024-03-07T01:10:40;23.92;;;12.43;;
9888;SDS011;4983;42.112;24.738;2024-03-07T01:13:06;27.98;;;13.40;;
9888;SDS011;4983;42.112;24.738;2024-03-07T01:15:34;23.75;;;11.90;;
9888;SDS011;4983;42.112;24.738;2024-03-07T01:17:59;25.38;;;12.32;;
9888;SDS011;4983;42.112;24.738;2024-03-07T01:20:25;23.10;;;11.82;;
9888;SDS011;4983;42.112;24.738;2024-03-07T01:22:51;21.75;;;12.00;;
9888;SDS011;4983;42.112;24.738;2024-03-07T01:25:17;26.33;;;12.02;;
9888;SDS011;4983;42.112;24.738;2024-03-07T01:27:43;28.02;;;11.77;;
9888;SDS011;4983;42.112;24.738;2024-03-07T01:30:09;25.50;;;12.48;;
9888;SDS011;4983;42.112;24.738;2024-03-07T01:32:35;24.85;;;11.05;;
9888;SDS011;4983;42.112;24.738;2024-03-07T01:35:00;27.60;;;12.27;;
9888;SDS011;4983;42.112;24.738;2024-03-07T01:37:26;28.15;;;12.48;;
9888;SDS011;4983;42.112;24.738;2024-03-07T01:39:51;23.55;;;11.98;;
9888;SDS011;4983;42.112;24.738;2024-03-07T01:42:17;23.55;;;11.52;;
9888;SDS011;4983;42.112;24.738;2024-03-07T01:44:42;26.13;;;11.05;;
9888;SDS011;4983;42.112;24.738;2024-03-07T01:47:09;27.42;;;12.38;;
9888;SDS011;4983;42.112;24.738;2024-03-07T01:49:35;26.15;;;12.55;;
9888;SDS011;4983;42.112;24.738;2024-03-07T01:52:01;27.58;;;12.13;;
9888;SDS011;4983;42.112;24.738;2024-03-07T01:54:30;23.60;;;11.75;;
9888;SDS011;4983;42.112;24.738;2024-03-07T01:56:57;23.45;;;12.43;;
9888;SDS011;4983;42.112;24.738;2024-03-07T01:59:23;22.27;;;11.98;;
9888;SDS011;4983;42.112;24.738;2024-03-07T02:01:49;22.50;;;11.88;;
9888;SDS011;4983;42.112;24.738;2024-03-07T02:04:15;26.58;;;10.63;;
9888;SDS011;4983;42.112;24.738;2024-03-07T02:06:41;23.33;;;10.98;;
9888;SDS011;4983;42.112;24.738;2024-03-07T02:09:07;24.08;;;11.63;;
9888;SDS011;4983;42.112;24.738;2024-03-07T02:11:32;24.40;;;10.90;;
9888;SDS011;4983;42.112;24.738;2024-03-07T02:13:58;27.73;;;12.23;;
9888;SDS011;4983;42.112;24.738;2024-03-07T02:16:24;28.38;;;12.48;;
9888;SDS011;4983;42.112;24.738;2024-03-07T02:18:50;22.77;;;11.20;;
9888;SDS011;4983;42.112;24.738;2024-03-07T02:21:16;23.77;;;11.95;;
9888;SDS011;4983;42.112;24.738;2024-03-07T02:23:41;23.52;;;12.15;;
9888;SDS011;4983;42.112;24.738;2024-03-07T02:26:07;26.60;;;11.98;;
9888;SDS011;4983;42.112;24.738;2024-03-07T02:28:33;30.73;;;14.27;;
9888;SDS011;4983;42.112;24.738;2024-03-07T02:30:59;25.23;;;10.80;;
9888;SDS011;4983;42.112;24.738;2024-03-07T02:33:25;25.35;;;12.60;;
9888;SDS011;4983;42.112;24.738;2024-03-07T02:35:51;26.95;;;11.93;;
9888;SDS011;4983;42.112;24.738;2024-03-07T02:38:16;28.00;;;13.57;;
9888;SDS011;4983;42.112;24.738;2024-03-07T02:40:43;24.05;;;11.40;;
9888;SDS011;4983;42.112;24.738;2024-03-07T02:43:08;22.48;;;11.15;;
9888;SDS011;4983;42.112;24.738;2024-03-07T02:45:33;25.38;;;12.55;;
9888;SDS011;4983;42.112;24.738;2024-03-07T02:47:59;22.80;;;11.52;;
9888;SDS011;4983;42.112;24.738;2024-03-07T02:50:24;23.15;;;10.23;;
9888;SDS011;4983;42.112;24.738;2024-03-07T02:52:50;24.63;;;11.98;;
9888;SDS011;4983;42.112;24.738;2024-03-07T02:55:17;24.00;;;10.77;;
9888;SDS011;4983;42.112;24.738;2024-03-07T02:57:44;23.77;;;10.73;;
9888;SDS011;4983;42.112;24.738;2024-03-07T03:00:10;21.88;;;11.30;;
9888;SDS011;4983;42.112;24.738;2024-03-07T03:02:48;26.75;;;11.35;;
9888;SDS011;4983;42.112;24.738;2024-03-07T03:05:17;27.38;;;11.88;;
9888;SDS011;4983;42.112;24.738;2024-03-07T03:07:43;22.88;;;10.52;;
9888;SDS011;4983;42.112;24.738;2024-03-07T03:10:22;22.67;;;10.50;;
9888;SDS011;4983;42.112;24.738;2024-03-07T03:12:54;29.48;;;11.15;;
9888;SDS011;4983;42.112;24.738;2024-03-07T03:15:21;28.50;;;12.82;;
9888;SDS011;4983;42.112;24.738;2024-03-07T03:17:47;22.05;;;11.23;;
9888;SDS011;4983;42.112;24.738;2024-03-07T03:20:13;22.83;;;10.82;;
9888;SDS011;4983;42.112;24.738;2024-03-07T03:23:05;19.52;;;9.50;;
9888;SDS011;4983;42.112;24.738;2024-03-07T03:25:31;22.85;;;12.13;;
9888;SDS011;4983;42.112;24.738;2024-03-07T03:28:03;22.85;;;11.45;;
9888;SDS011;4983;42.112;24.738;2024-03-07T03:30:29;27.95;;;11.88;;
9888;SDS011;4983;42.112;24.738;2024-03-07T03:32:55;26.70;;;10.20;;
9888;SDS011;4983;42.112;24.738;2024-03-07T03:35:20;24.40;;;10.07;;
9888;SDS011;4983;42.112;24.738;2024-03-07T03:37:46;23.27;;;12.13;;
9888;SDS011;4983;42.112;24.738;2024-03-07T03:40:12;20.27;;;10.93;;
9888;SDS011;4983;42.112;24.738;2024-03-07T03:42:41;20.45;;;11.13;;
9888;SDS011;4983;42.112;24.738;2024-03-07T03:45:08;27.98;;;10.82;;
9888;SDS011;4983;42.112;24.738;2024-03-07T03:47:36;23.02;;;11.68;;
9888;SDS011;4983;42.112;24.738;2024-03-07T03:50:06;22.10;;;11.25;;
9888;SDS011;4983;42.112;24.738;2024-03-07T03:52:32;22.60;;;11.40;;
9888;SDS011;4983;42.112;24.738;2024-03-07T03:55:00;24.75;;;11.02;;
9888;SDS011;4983;42.112;24.738;2024-03-07T03:57:27;24.10;;;11.77;;
9888;SDS011;4983;42.112;24.738;2024-03-07T03:59:53;25.02;;;11.63;;
9888;SDS011;4983;42.112;24.738;2024-03-07T04:02:19;32.90;;;12.27;;
9888;SDS011;4983;42.112;24.738;2024-03-07T04:04:47;31.23;;;13.40;;
9888;SDS011;4983;42.112;24.738;2024-03-07T04:07:13;21.25;;;10.98;;
9888;SDS011;4983;42.112;24.738;2024-03-07T04:09:38;24.15;;;12.25;;
9888;SDS011;4983;42.112;24.738;2024-03-07T04:12:04;20.15;;;10.07;;
9888;SDS011;4983;42.112;24.738;2024-03-07T04:14:30;22.75;;;10.27;;
9888;SDS011;4983;42.112;24.738;2024-03-07T04:16:58;19.45;;;10.13;;
9888;SDS011;4983;42.112;24.738;2024-03-07T04:19:23;31.75;;;11.75;;
9888;SDS011;4983;42.112;24.738;2024-03-07T04:21:50;20.50;;;10.38;;
9888;SDS011;4983;42.112;24.738;2024-03-07T04:24:16;23.10;;;11.07;;
9888;SDS011;4983;42.112;24.738;2024-03-07T04:26:42;19.08;;;10.00;;
9888;SDS011;4983;42.112;24.738;2024-03-07T04:29:07;19.50;;;9.88;;
9888;SDS011;4983;42.112;24.738;2024-03-07T04:31:36;17.88;;;9.57;;
9888;SDS011;4983;42.112;24.738;2024-03-07T04:34:02;23.55;;;10.35;;
9888;SDS011;4983;42.112;24.738;2024-03-07T04:36:27;24.33;;;10.75;;
9888;SDS011;4983;42.112;24.738;2024-03-07T04:38:54;25.42;;;11.30;;
9888;SDS011;4983;42.112;24.738;2024-03-07T04:41:20;25.65;;;12.88;;
9888;SDS011;4983;42.112;24.738;2024-03-07T04:43:45;28.75;;;11.02;;
9888;SDS011;4983;42.112;24.738;2024-03-07T04:46:11;28.27;;;11.48;;
9888;SDS011;4983;42.112;24.738;2024-03-07T04:48:36;26.15;;;11.50;;
9888;SDS011;4983;42.112;24.738;2024-03-07T04:51:02;20.17;;;10.00;;
9888;SDS011;4983;42.112;24.738;2024-03-07T04:53:28;22.52;;;11.15;;
9888;SDS011;4983;42.112;24.738;2024-03-07T04:55:54;23.63;;;11.50;;
9888;SDS011;4983;42.112;24.738;2024-03-07T04:58:19;25.92;;;12.02;;
9888;SDS011;4983;42.112;24.738;2024-03-07T05:00:45;21.02;;;12.02;;
9888;SDS011;4983;42.112;24.738;2024-03-07T05:03:10;21.45;;;10.60;;
9888;SDS011;4983;42.112;24.738;2024-03-07T05:05:36;23.40;;;11.30;;
9888;SDS011;4983;42.112;24.738;2024-03-07T05:08:01;22.48;;;10.57;;
9888;SDS011;4983;42.112;24.738;2024-03-07T05:10:29;34.22;;;12.95;;
9888;SDS011;4983;42.112;24.738;2024-03-07T05:12:55;22.77;;;12.25;;
9888;SDS011;4983;42.112;24.738;2024-03-07T05:15:23;22.13;;;11.77;;
9888;SDS011;4983;42.112;24.738;2024-03-07T05:17:51;31.17;;;11.25;;
9888;SDS011;4983;42.112;24.738;2024-03-07T05:20:17;28.75;;;13.15;;
9888;SDS011;4983;42.112;24.738;2024-03-07T05:22:42;24.27;;;11.98;;
9888;SDS011;4983;42.112;24.738;2024-03-07T05:25:17;23.20;;;12.20;;
9888;SDS011;4983;42.112;24.738;2024-03-07T05:27:44;29.45;;;12.90;;
9888;SDS011;4983;42.112;24.738;2024-03-07T05:30:10;29.85;;;12.18;;
9888;SDS011;4983;42.112;24.738;2024-03-07T05:32:38;26.98;;;12.88;;
9888;SDS011;4983;42.112;24.738;2024-03-07T05:35:05;22.52;;;11.70;;
9888;SDS011;4983;42.112;24.738;2024-03-07T05:37:31;25.83;;;12.40;;
9888;SDS011;4983;42.112;24.738;2024-03-07T05:39:57;28.75;;;12.30;;
9888;SDS011;4983;42.112;24.738;2024-03-07T05:42:22;29.27;;;12.82;;
9888;SDS011;4983;42.112;24.738;2024-03-07T05:44:50;25.77;;;12.50;;
9888;SDS011;4983;42.112;24.738;2024-03-07T05:47:15;29.73;;;13.60;;
9888;SDS011;4983;42.112;24.738;2024-03-07T05:49:42;25.70;;;11.75;;
9888;SDS011;4983;42.112;24.738;2024-03-07T05:52:08;29.45;;;13.55;;
9888;SDS011;4983;42.112;24.738;2024-03-07T05:54:34;27.25;;;12.35;;
9888;SDS011;4983;42.112;24.738;2024-03-07T05:57:00;30.35;;;13.48;;
9888;SDS011;4983;42.112;24.738;2024-03-07T05:59:26;30.42;;;12.82;;
9888;SDS011;4983;42.112;24.738;2024-03-07T06:01:56;28.33;;;13.20;;
9888;SDS011;4983;42.112;24.738;2024-03-07T06:04:22;29.42;;;13.68;;
9888;SDS011;4983;42.112;24.738;2024-03-07T06:06:48;28.45;;;12.73;;
9888;SDS011;4983;42.112;24.738;2024-03-07T06:09:14;25.38;;;11.45;;
9888;SDS011;4983;42.112;24.738;2024-03-07T06:11:40;28.45;;;12.35;;
9888;SDS011;4983;42.112;24.738;2024-03-07T06:14:09;27.00;;;12.40;;
9888;SDS011;4983;42.112;24.738;2024-03-07T06:16:36;32.78;;;12.43;;
9888;SDS011;4983;42.112;24.738;2024-03-07T06:19:03;27.33;;;12.63;;
9888;SDS011;4983;42.112;24.738;2024-03-07T06:21:29;27.90;;;12.88;;
9888;SDS011;4983;42.112;24.738;2024-03-07T06:23:58;27.63;;;11.68;;
9888;SDS011;4983;42.112;24.738;2024-03-07T06:26:28;25.13;;;12.63;;
9888;SDS011;4983;42.112;24.738;2024-03-07T06:29:16;27.20;;;12.98;;
9888;SDS011;4983;42.112;24.738;2024-03-07T06:31:42;29.15;;;13.48;;
9888;SDS011;4983;42.112;24.738;2024-03-07T06:34:08;27.95;;;12.23;;
9888;SDS011;4983;42.112;24.738;2024-03-07T06:36:34;29.67;;;14.45;;
9888;SDS011;4983;42.112;24.738;2024-03-07T06:39:00;30.95;;;12.10;;
9888;SDS011;4983;42.112;24.738;2024-03-07T06:41:26;34.17;;;13.70;;
9888;SDS011;4983;42.112;24.738;2024-03-07T06:43:51;31.23;;;13.85;;
9888;SDS011;4983;42.112;24.738;2024-03-07T06:46:20;34.03;;;13.68;;
9888;SDS011;4983;42.112;24.738;2024-03-07T06:48:45;31.75;;;13.88;;
9888;SDS011;4983;42.112;24.738;2024-03-07T06:51:11;35.13;;;14.50;;
9888;SDS011;4983;42.112;24.738;2024-03-07T06:53:37;29.33;;;15.27;;
9888;SDS011;4983;42.112;24.738;2024-03-07T06:56:02;34.40;;;13.63;;
9888;SDS011;4983;42.112;24.738;2024-03-07T06:58:28;37.92;;;14.93;;
9888;SDS011;4983;42.112;24.738;2024-03-07T07:00:54;44.83;;;15.77;;
9888;SDS011;4983;42.112;24.738;2024-03-07T07:03:20;34.70;;;15.52;;
9888;SDS011;4983;42.112;24.738;2024-03-07T07:05:49;35.75;;;16.65;;
9888;SDS011;4983;42.112;24.738;2024-03-07T07:08:15;41.50;;;17.13;;
9888;SDS011;4983;42.112;24.738;2024-03-07T07:10:41;38.15;;;15.68;;
9888;SDS011;4983;42.112;24.738;2024-03-07T07:13:07;32.53;;;16.80;;
9888;SDS011;4983;42.112;24.738;2024-03-07T07:15:33;45.03;;;17.42;;
9888;SDS011;4983;42.112;24.738;2024-03-07T07:17:59;37.50;;;17.00;;
9888;SDS011;4983;42.112;24.738;2024-03-07T07:20:27;36.67;;;17.00;;
9888;SDS011;4983;42.112;24.738;2024-03-07T07:22:52;40.17;;;17.17;;
9888;SDS011;4983;42.112;24.738;2024-03-07T07:25:19;39.25;;;16.50;;
9888;SDS011;4983;42.112;24.738;2024-03-07T07:27:47;34.15;;;15.70;;
9888;SDS011;4983;42.112;24.738;2024-03-07T07:30:17;31.83;;;14.80;;
9888;SDS011;4983;42.112;24.738;2024-03-07T07:32:45;30.60;;;14.88;;
9888;SDS011;4983;42.112;24.738;2024-03-07T07:35:11;33.53;;;15.45;;
9888;SDS011;4983;42.112;24.738;2024-03-07T07:37:41;35.88;;;15.60;;
9888;SDS011;4983;42.112;24.738;2024-03-07T07:40:08;34.53;;;15.93;;
9888;SDS011;4983;42.112;24.738;2024-03-07T07:42:38;39.20;;;15.63;;
9888;SDS011;4983;42.112;24.738;2024-03-07T07:45:10;32.28;;;14.65;;
9888;SDS011;4983;42.112;24.738;2024-03-07T07:47:39;36.90;;;15.40;;
9888;SDS011;4983;42.112;24.738;2024-03-07T07:50:16;30.23;;;14.10;;
9888;SDS011;4983;42.112;24.738;2024-03-07T07:52:58;33.00;;;15.05;;
9888;SDS011;4983;42.112;24.738;2024-03-07T07:55:24;34.30;;;15.40;;
9888;SDS011;4983;42.112;24.738;2024-03-07T07:57:51;34.70;;;16.40;;
9888;SDS011;4983;42.112;24.738;2024-03-07T08:00:19;33.55;;;15.23;;
9888;SDS011;4983;42.112;24.738;2024-03-07T08:02:55;30.83;;;15.38;;
9888;SDS011;4983;42.112;24.738;2024-03-07T08:05:25;32.17;;;16.38;;
9888;SDS011;4983;42.112;24.738;2024-03-07T08:07:53;38.70;;;16.67;;
9888;SDS011;4983;42.112;24.738;2024-03-07T08:10:20;36.50;;;15.20;;
9888;SDS011;4983;42.112;24.738;2024-03-07T08:12:48;27.90;;;14.48;;
9888;SDS011;4983;42.112;24.738;2024-03-07T08:15:13;30.23;;;13.43;;
9888;SDS011;4983;42.112;24.738;2024-03-07T08:17:40;37.95;;;15.45;;
9888;SDS011;4983;42.112;24.738;2024-03-07T08:20:09;37.78;;;16.00;;
9888;SDS011;4983;42.112;24.738;2024-03-07T08:22:39;36.78;;;15.98;;
9888;SDS011;4983;42.112;24.738;2024-03-07T08:25:07;46.65;;;16.75;;
9888;SDS011;4983;42.112;24.738;2024-03-07T08:27:35;39.63;;;15.55;;
9888;SDS011;4983;42.112;24.738;2024-03-07T08:30:04;33.25;;;14.18;;
9888;SDS011;4983;42.112;24.738;2024-03-07T08:32:36;45.80;;;15.90;;
9888;SDS011;4983;42.112;24.738;2024-03-07T08:35:05;34.17;;;13.95;;
9888;SDS011;4983;42.112;24.738;2024-03-07T08:37:35;34.00;;;12.93;;
9888;SDS011;4983;42.112;24.738;2024-03-07T08:40:10;29.55;;;14.20;;
9888;SDS011;4983;42.112;24.738;2024-03-07T08:42:38;37.17;;;15.00;;
9888;SDS011;4983;42.112;24.738;2024-03-07T08:45:04;41.55;;;15.65;;
9888;SDS011;4983;42.112;24.738;2024-03-07T08:47:31;37.80;;;14.85;;
9888;SDS011;4983;42.112;24.738;2024-03-07T08:49:57;30.13;;;14.77;;
9888;SDS011;4983;42.112;24.738;2024-03-07T08:52:23;41.88;;;17.13;;
9888;SDS011;4983;42.112;24.738;2024-03-07T08:54:49;44.40;;;18.13;;
9888;SDS011;4983;42.112;24.738;2024-03-07T08:57:14;38.47;;;18.55;;
9888;SDS011;4983;42.112;24.738;2024-03-07T08:59:42;54.22;;;19.05;;
9888;SDS011;4983;42.112;24.738;2024-03-07T09:02:08;46.50;;;18.80;;
9888;SDS011;4983;42.112;24.738;2024-03-07T09:04:35;48.90;;;18.27;;
9888;SDS011;4983;42.112;24.738;2024-03-07T09:07:01;48.97;;;19.95;;
9888;SDS011;4983;42.112;24.738;2024-03-07T09:09:26;41.03;;;18.58;;
9888;SDS011;4983;42.112;24.738;2024-03-07T09:11:52;48.30;;;17.58;;
9888;SDS011;4983;42.112;24.738;2024-03-07T09:14:17;50.47;;;18.45;;
9888;SDS011;4983;42.112;24.738;2024-03-07T09:16:43;42.42;;;19.40;;
9888;SDS011;4983;42.112;24.738;2024-03-07T09:19:09;41.67;;;19.30;;
9888;SDS011;4983;42.112;24.738;2024-03-07T09:21:39;42.30;;;18.30;;
9888;SDS011;4983;42.112;24.738;2024-03-07T09:24:05;47.78;;;18.80;;
9888;SDS011;4983;42.112;24.738;2024-03-07T09:26:32;43.25;;;18.55;;
9888;SDS011;4983;42.112;24.738;2024-03-07T09:28:58;41.72;;;18.88;;
9888;SDS011;4983;42.112;24.738;2024-03-07T09:31:26;43.10;;;20.45;;
9888;SDS011;4983;42.112;24.738;2024-03-07T09:33:51;43.17;;;17.83;;
9888;SDS011;4983;42.112;24.738;2024-03-07T09:36:19;38.30;;;17.38;;
9888;SDS011;4983;42.112;24.738;2024-03-07T09:38:44;45.40;;;18.35;;
9888;SDS011;4983;42.112;24.738;2024-03-07T09:41:10;47.45;;;19.50;;
9888;SDS011;4983;42.112;24.738;2024-03-07T09:43:35;42.42;;;19.38;;
9888;SDS011;4983;42.112;24.738;2024-03-07T09:46:04;47.33;;;19.13;;
9888;SDS011;4983;42.112;24.738;2024-03-07T09:48:31;53.08;;;21.63;;
9888;SDS011;4983;42.112;24.738;2024-03-07T09:50:57;48.03;;;18.65;;
9888;SDS011;4983;42.112;24.738;2024-03-07T09:53:24;41.35;;;17.77;;
9888;SDS011;4983;42.112;24.738;2024-03-07T09:55:51;42.40;;;18.38;;
9888;SDS011;4983;42.112;24.738;2024-03-07T09:58:19;47.03;;;18.88;;
9888;SDS011;4983;42.112;24.738;2024-03-07T10:00:45;41.70;;;18.73;;
9888;SDS011;4983;42.112;24.738;2024-03-07T10:03:15;38.72;;;18.02;;
9888;SDS011;4983;42.112;24.738;2024-03-07T10:05:45;43.45;;;18.55;;
9888;SDS011;4983;42.112;24.738;2024-03-07T10:08:11;44.25;;;20.73;;
9888;SDS011;4983;42.112;24.738;2024-03-07T10:10:38;47.22;;;20.70;;
9888;SDS011;4983;42.112;24.738;2024-03-07T10:13:03;52.17;;;20.90;;
9888;SDS011;4983;42.112;24.738;2024-03-07T10:15:31;45.28;;;18.92;;
9888;SDS011;4983;42.112;24.738;2024-03-07T10:17:58;42.40;;;19.08;;
9888;SDS011;4983;42.112;24.738;2024-03-07T10:20:25;45.38;;;19.10;;
9888;SDS011;4983;42.112;24.738;2024-03-07T10:22:50;54.95;;;20.63;;
9888;SDS011;4983;42.112;24.738;2024-03-07T10:25:20;42.83;;;17.88;;
9888;SDS011;4983;42.112;24.738;2024-03-07T10:27:52;45.28;;;19.98;;
9888;SDS011;4983;42.112;24.738;2024-03-07T10:30:19;53.30;;;18.70;;
9888;SDS011;4983;42.112;24.738;2024-03-07T10:32:50;44.05;;;19.50;;
9888;SDS011;4983;42.112;24.738;2024-03-07T10:35:20;39.88;;;16.75;;
9888;SDS011;4983;42.112;24.738;2024-03-07T10:37:47;42.35;;;18.02;;
9888;SDS011;4983;42.112;24.738;2024-03-07T10:40:13;42.42;;;20.27;;
9888;SDS011;4983;42.112;24.738;2024-03-07T10:42:46;45.70;;;19.60;;
9888;SDS011;4983;42.112;24.738;2024-03-07T10:45:16;52.88;;;20.80;;
9888;SDS011;4983;42.112;24.738;2024-03-07T10:47:48;53.40;;;20.95;;
9888;SDS011;4983;42.112;24.738;2024-03-07T10:50:43;52.95;;;21.40;;
9888;SDS011;4983;42.112;24.738;2024-03-07T10:59:17;45.97;;;20.58;;
9888;SDS011;4983;42.112;24.738;2024-03-07T11:01:57;49.78;;;20.42;;
9888;SDS011;4983;42.112;24.738;2024-03-07T11:04:31;55.20;;;22.20;;
9888;SDS011;4983;42.112;24.738;2024-03-07T11:06:59;47.30;;;20.70;;
9888;SDS011;4983;42.112;24.738;2024-03-07T11:09:25;47.63;;;19.25;;
9888;SDS011;4983;42.112;24.738;2024-03-07T11:11:58;41.13;;;18.83;;
9888;SDS011;4983;42.112;24.738;2024-03-07T11:14:25;45.90;;;19.38;;
9888;SDS011;4983;42.112;24.738;2024-03-07T11:16:52;44.28;;;20.38;;
9888;SDS011;4983;42.112;24.738;2024-03-07T11:19:24;44.20;;;20.45;;
9888;SDS011;4983;42.112;24.738;2024-03-07T11:21:53;48.47;;;20.92;;
9888;SDS011;4983;42.112;24.738;2024-03-07T11:24:29;57.03;;;25.10;;
9888;SDS011;4983;42.112;24.738;2024-03-07T11:26:57;48.88;;;21.33;;
9888;SDS011;4983;42.112;24.738;2024-03-07T11:32:11;42.05;;;20.13;;
9888;SDS011;4983;42.112;24.738;2024-03-07T11:34:40;49.63;;;22.33;;
9888;SDS011;4983;42.112;24.738;2024-03-07T11:37:10;48.75;;;21.63;;
9888;SDS011;4983;42.112;24.738;2024-03-07T11:42:09;45.20;;;19.00;;
9888;SDS011;4983;42.112;24.738;2024-03-07T11:44:44;44.63;;;20.60;;
9888;SDS011;4983;42.112;24.738;2024-03-07T11:47:12;42.38;;;19.77;;
9888;SDS011;4983;42.112;24.738;2024-03-07T11:49:38;44.25;;;19.83;;
9888;SDS011;4983;42.112;24.738;2024-03-07T11:52:04;43.60;;;19.85;;
9888;SDS011;4983;42.112;24.738;2024-03-07T11:54:37;39.47;;;18.58;;
9888;SDS011;4983;42.112;24.738;2024-03-07T11:57:07;40.88;;;20.25;;
9888;SDS011;4983;42.112;24.738;2024-03-07T11:59:39;44.08;;;22.52;;
9888;SDS011;4983;42.112;24.738;2024-03-07T12:02:05;52.40;;;25.65;;
9888;SDS011;4983;42.112;24.738;2024-03-07T12:04:31;47.20;;;22.08;;
9888;SDS011;4983;42.112;24.738;2024-03-07T12:07:00;38.20;;;19.60;;
9888;SDS011;4983;42.112;24.738;2024-03-07T12:09:25;41.75;;;21.00;;
9888;SDS011;4983;42.112;24.738;2024-03-07T12:11:51;36.00;;;19.65;;
9888;SDS011;4983;42.112;24.738;2024-03-07T12:14:20;43.63;;;20.92;;
9888;SDS011;4983;42.112;24.738;2024-03-07T12:16:46;37.17;;;19.90;;
9888;SDS011;4983;42.112;24.738;2024-03-07T12:19:12;46.33;;;20.50;;
9888;SDS011;4983;42.112;24.738;2024-03-07T12:21:38;42.63;;;21.00;;
9888;SDS011;4983;42.112;24.738;2024-03-07T12:24:13;40.00;;;20.85;;
9888;SDS011;4983;42.112;24.738;2024-03-07T12:26:40;43.45;;;21.02;;
9888;SDS011;4983;42.112;24.738;2024-03-07T12:29:09;46.25;;;20.67;;
9888;SDS011;4983;42.112;24.738;2024-03-07T12:31:41;39.15;;;20.23;;
9888;SDS011;4983;42.112;24.738;2024-03-07T12:34:10;45.33;;;20.23;;
9888;SDS011;4983;42.112;24.738;2024-03-07T12:36:35;40.78;;;19.52;;
9888;SDS011;4983;42.112;24.738;2024-03-07T12:39:23;34.08;;;16.88;;
9888;SDS011;4983;42.112;24.738;2024-03-07T12:41:56;39.17;;;20.08;;
9888;SDS011;4983;42.112;24.738;2024-03-07T12:44:21;43.75;;;20.60;;
9888;SDS011;4983;42.112;24.738;2024-03-07T12:46:54;46.22;;;19.27;;
9888;SDS011;4983;42.112;24.738;2024-03-07T12:49:24;46.65;;;20.92;;
9888;SDS011;4983;42.112;24.738;2024-03-07T12:51:55;43.83;;;21.02;;
9888;SDS011;4983;42.112;24.738;2024-03-07T12:54:24;52.67;;;21.40;;
9888;SDS011;4983;42.112;24.738;2024-03-07T12:56:50;45.90;;;20.88;;
9888;SDS011;4983;42.112;24.738;2024-03-07T12:59:15;50.83;;;21.02;;
9888;SDS011;4983;42.112;24.738;2024-03-07T13:01:42;47.13;;;22.33;;
9888;SDS011;4983;42.112;24.738;2024-03-07T13:04:10;42.50;;;19.33;;
9888;SDS011;4983;42.112;24.738;2024-03-07T13:06:36;47.00;;;21.48;;
9888;SDS011;4983;42.112;24.738;2024-03-07T13:09:02;45.70;;;19.67;;
9888;SDS011;4983;42.112;24.738;2024-03-07T13:11:28;46.22;;;21.02;;
9888;SDS011;4983;42.112;24.738;2024-03-07T13:13:57;40.58;;;19.90;;
9888;SDS011;4983;42.112;24.738;2024-03-07T13:16:23;41.72;;;20.00;;
9888;SDS011;4983;42.112;24.738;2024-03-07T13:18:55;38.45;;;19.33;;
9888;SDS011;4983;42.112;24.738;2024-03-07T13:21:21;41.88;;;20.33;;
9888;SDS011;4983;42.112;24.738;2024-03-07T13:23:47;40.15;;;20.52;;
9888;SDS011;4983;42.112;24.738;2024-03-07T13:26:12;37.75;;;17.52;;
9888;SDS011;4983;42.112;24.738;2024-03-07T13:28:42;32.92;;;17.00;;
9888;SDS011;4983;42.112;24.738;2024-03-07T13:31:09;40.00;;;19.13;;
9888;SDS011;4983;42.112;24.738;2024-03-07T13:33:37;40.85;;;19.75;;
9888;SDS011;4983;42.112;24.738;2024-03-07T13:36:02;35.53;;;18.70;;
9888;SDS011;4983;42.112;24.738;2024-03-07T13:38:29;29.38;;;17.02;;
9888;SDS011;4983;42.112;24.738;2024-03-07T13:40:55;34.05;;;16.30;;
9888;SDS011;4983;42.112;24.738;2024-03-07T13:43:22;34.47;;;16.35;;
9888;SDS011;4983;42.112;24.738;2024-03-07T13:45:48;31.77;;;16.55;;
9888;SDS011;4983;42.112;24.738;2024-03-07T13:48:14;33.47;;;16.20;;
9888;SDS011;4983;42.112;24.738;2024-03-07T13:50:42;31.85;;;16.60;;
9888;SDS011;4983;42.112;24.738;2024-03-07T13:53:11;34.30;;;16.67;;
9888;SDS011;4983;42.112;24.738;2024-03-07T14:06:25;32.92;;;17.05;;
9888;SDS011;4983;42.112;24.738;2024-03-07T14:23:41;24.13;;;13.18;;
9888;SDS011;4983;42.112;24.738;2024-03-07T14:29:20;23.92;;;13.07;;
9888;SDS011;4983;42.112;24.738;2024-03-07T14:31:56;24.00;;;12.68;;
9888;SDS011;4983;42.112;24.738;2024-03-07T14:37:27;18.60;;;10.85;;
9888;SDS011;4983;42.112;24.738;2024-03-07T14:40:10;20.80;;;11.20;;
9888;SDS011;4983;42.112;24.738;2024-03-07T14:42:45;18.42;;;10.57;;
9888;SDS011;4983;42.112;24.738;2024-03-07T14:45:21;19.52;;;10.48;;
9888;SDS011;4983;42.112;24.738;2024-03-07T14:48:04;18.38;;;9.35;;
9888;SDS011;4983;42.112;24.738;2024-03-07T14:50:33;16.35;;;10.30;;
9888;SDS011;4983;42.112;24.738;2024-03-07T14:52:59;16.70;;;10.90;;
9888;SDS011;4983;42.112;24.738;2024-03-07T14:55:25;15.45;;;9.07;;
9888;SDS011;4983;42.112;24.738;2024-03-07T14:57:50;14.65;;;9.40;;
9888;SDS011;4983;42.112;24.738;2024-03-07T15:00:16;16.00;;;9.18;;
9888;SDS011;4983;42.112;24.738;2024-03-07T15:02:48;19.65;;;9.85;;
9888;SDS011;4983;42.112;24.738;2024-03-07T15:05:15;15.52;;;8.68;;
9888;SDS011;4983;42.112;24.738;2024-03-07T15:07:41;15.63;;;8.90;;
9888;SDS011;4983;42.112;24.738;2024-03-07T15:10:14;17.65;;;9.57;;
9888;SDS011;4983;42.112;24.738;2024-03-07T15:12:47;15.00;;;9.38;;
9888;SDS011;4983;42.112;24.738;2024-03-07T15:15:16;17.88;;;10.23;;
9888;SDS011;4983;42.112;24.738;2024-03-07T15:17:44;15.70;;;9.05;;
9888;SDS011;4983;42.112;24.738;2024-03-07T15:20:10;16.20;;;10.38;;
9888;SDS011;4983;42.112;24.738;2024-03-07T15:23:01;14.25;;;8.70;;